createdAt,value
2018-01-31T01:52:20.700Z,7.37
2018-01-31T01:53:10.365Z,7.42
2018-01-31T01:54:10.387Z,7.43
2018-01-31T01:55:10.382Z,7.48
2018-01-31T01:56:10.384Z,7.43
2018-01-31T01:57:10.375Z,7.40
2018-01-31T01:58:10.372Z,7.45
2018-01-31T01:59:10.372Z,7.40
2018-01-31T02:00:10.368Z,7.43
2018-01-31T02:01:10.390Z,7.48
2018-01-31T02:02:10.366Z,7.48
2018-01-31T02:03:10.373Z,7.46
2018-01-31T02:04:10.380Z,7.43
2018-01-31T02:05:10.371Z,7.42
2018-01-31T02:06:10.377Z,7.43
2018-01-31T02:07:10.387Z,7.46
2018-01-31T02:08:10.389Z,7.45
2018-01-31T02:09:10.387Z,7.43
2018-01-31T02:10:10.391Z,7.48
2018-01-31T02:11:10.379Z,7.43
2018-01-31T02:12:10.383Z,7.42
2018-01-31T02:13:10.367Z,7.43
2018-01-31T02:14:10.382Z,7.45
2018-01-31T02:15:10.385Z,7.46
2018-01-31T02:16:10.366Z,7.40
2018-01-31T02:17:10.387Z,7.40
2018-01-31T02:18:10.368Z,7.42
2018-01-31T02:19:10.376Z,7.42
2018-01-31T02:20:10.379Z,7.40
2018-01-31T02:21:10.387Z,7.32
2018-01-31T02:22:10.467Z,7.35
2018-01-31T02:23:10.394Z,7.32
2018-01-31T02:24:10.391Z,7.27
2018-01-31T02:25:10.380Z,7.37
2018-01-31T02:26:10.395Z,7.30
2018-01-31T02:27:10.386Z,7.32
2018-01-31T02:28:10.407Z,7.30
2018-01-31T02:29:10.379Z,7.34
2018-01-31T02:30:10.424Z,7.37
2018-01-31T02:31:10.422Z,7.37
2018-01-31T02:32:10.367Z,7.40
2018-01-31T02:33:10.378Z,7.37
2018-01-31T02:34:10.378Z,7.35
2018-01-31T02:35:10.391Z,7.42
2018-01-31T02:36:10.368Z,7.39
2018-01-31T02:37:10.438Z,7.37
2018-01-31T02:38:10.376Z,7.37
2018-01-31T02:39:10.401Z,7.32
2018-01-31T02:40:10.361Z,7.40
2018-01-31T02:41:10.377Z,7.45
2018-01-31T02:42:10.377Z,7.43
2018-01-31T02:43:10.374Z,7.43
2018-01-31T02:44:10.376Z,7.42
2018-01-31T02:45:10.382Z,7.43
2018-01-31T02:46:10.381Z,7.42
2018-01-31T02:47:10.373Z,7.43
2018-01-31T02:48:10.376Z,7.48
2018-01-31T02:49:10.368Z,7.52
2018-01-31T02:50:10.382Z,7.43
2018-01-31T02:51:10.439Z,7.55
2018-01-31T02:52:10.395Z,7.52
2018-01-31T02:53:10.405Z,7.53
2018-01-31T02:54:10.383Z,7.49
2018-01-31T02:55:10.385Z,7.53
2018-01-31T02:56:10.405Z,7.57
2018-01-31T02:57:10.373Z,7.55
2018-01-31T02:58:10.389Z,7.58
2018-01-31T02:59:10.371Z,7.50
2018-01-31T03:00:10.384Z,7.60
2018-01-31T03:01:10.364Z,7.60
2018-01-31T03:02:10.386Z,7.60
2018-01-31T03:03:10.390Z,7.63
2018-01-31T03:04:10.391Z,7.60
2018-01-31T03:05:10.382Z,7.60
2018-01-31T03:06:10.371Z,7.61
2018-01-31T03:07:10.370Z,7.61
2018-01-31T03:08:10.417Z,7.57
2018-01-31T03:09:10.381Z,7.68
2018-01-31T03:10:10.384Z,7.68
2018-01-31T03:11:10.390Z,7.71
2018-01-31T03:12:10.386Z,7.68
2018-01-31T03:13:10.418Z,7.64
2018-01-31T03:14:10.377Z,7.72
2018-01-31T03:15:10.376Z,7.75
2018-01-31T03:16:10.384Z,7.64
2018-01-31T03:17:10.383Z,7.74
2018-01-31T03:18:10.383Z,7.68
2018-01-31T03:19:10.382Z,7.77
2018-01-31T03:20:10.442Z,7.79
2018-01-31T03:21:10.429Z,7.77
2018-01-31T03:22:10.416Z,7.67
2018-01-31T03:23:10.408Z,7.79
2018-01-31T03:24:10.411Z,7.77
2018-01-31T03:25:10.392Z,7.79
2018-01-31T03:26:10.375Z,7.89
2018-01-31T03:27:10.390Z,7.89
2018-01-31T03:28:10.396Z,7.86
2018-01-31T03:29:10.394Z,7.79
2018-01-31T03:30:10.387Z,7.82
2018-01-31T03:31:10.429Z,7.90
2018-01-31T03:32:10.398Z,7.86
2018-01-31T03:33:10.377Z,7.82
2018-01-31T03:34:10.394Z,7.79
2018-01-31T03:35:10.390Z,7.86
2018-01-31T03:36:10.383Z,7.86
2018-01-31T03:37:10.381Z,7.89
2018-01-31T03:38:10.435Z,7.87
2018-01-31T03:39:10.383Z,7.95
2018-01-31T03:40:10.392Z,7.83
2018-01-31T03:41:10.380Z,7.93
2018-01-31T03:42:11.083Z,7.90
2018-01-31T03:43:10.422Z,7.93
2018-01-31T03:44:10.434Z,8.10
2018-01-31T03:45:10.460Z,7.95
2018-01-31T03:46:10.385Z,7.95
2018-01-31T03:47:10.406Z,8.00
2018-01-31T03:48:10.380Z,8.01
2018-01-31T03:49:10.380Z,8.04
2018-01-31T03:50:10.390Z,8.01
2018-01-31T03:51:10.425Z,8.04
2018-01-31T03:52:10.444Z,8.04
2018-01-31T03:53:10.401Z,8.01
2018-01-31T03:54:10.431Z,8.04
2018-01-31T03:55:10.441Z,8.08
2018-01-31T03:56:10.391Z,8.10
2018-01-31T03:57:10.404Z,8.10
2018-01-31T03:58:10.382Z,8.04
2018-01-31T03:59:10.384Z,8.11
2018-01-31T04:00:10.391Z,8.10
2018-01-31T04:01:10.380Z,8.05
2018-01-31T04:02:10.388Z,8.15
2018-01-31T04:03:10.403Z,8.18
2018-01-31T04:04:10.390Z,8.23
2018-01-31T04:05:10.390Z,8.19
2018-01-31T04:06:10.410Z,8.23
2018-01-31T04:07:10.411Z,8.23
2018-01-31T04:08:10.386Z,8.23
2018-01-31T04:09:10.420Z,8.20
2018-01-31T04:10:10.413Z,8.20
2018-01-31T04:11:10.417Z,8.16
2018-01-31T04:12:10.393Z,8.28
2018-01-31T04:13:10.439Z,8.26
2018-01-31T04:14:10.401Z,8.25
2018-01-31T04:15:10.397Z,8.30
2018-01-31T04:16:10.399Z,8.28
2018-01-31T04:17:10.394Z,8.44
2018-01-31T04:18:10.420Z,8.33
2018-01-31T04:19:10.405Z,8.28
2018-01-31T04:20:10.404Z,8.37
2018-01-31T04:21:10.410Z,8.43
2018-01-31T04:22:10.388Z,8.33
2018-01-31T04:23:10.420Z,8.38
2018-01-31T04:24:10.413Z,8.40
2018-01-31T04:25:10.428Z,8.41
2018-01-31T04:26:11.093Z,8.41
2018-01-31T04:27:10.423Z,8.40
2018-01-31T04:28:10.397Z,8.43
2018-01-31T04:29:10.395Z,8.40
2018-01-31T04:30:10.396Z,8.45
2018-01-31T04:31:10.413Z,8.50
2018-01-31T04:32:10.396Z,8.50
2018-01-31T04:33:10.401Z,8.41
2018-01-31T04:34:10.403Z,8.50
2018-01-31T04:35:10.425Z,8.48
2018-01-31T04:36:10.421Z,8.44
2018-01-31T04:37:10.402Z,8.55
2018-01-31T04:38:10.397Z,8.52
2018-01-31T04:39:10.420Z,8.59
2018-01-31T04:40:10.429Z,8.56
2018-01-31T04:41:10.440Z,8.53
2018-01-31T04:42:10.398Z,8.52
2018-01-31T04:43:10.404Z,8.52
2018-01-31T04:44:10.409Z,8.56
2018-01-31T04:45:10.479Z,8.59
2018-01-31T04:46:10.403Z,8.55
2018-01-31T04:47:10.412Z,8.61
2018-01-31T04:48:10.424Z,8.59
2018-01-31T04:49:10.518Z,8.62
2018-01-31T04:50:10.410Z,8.61
2018-01-31T04:51:10.467Z,8.62
2018-01-31T04:52:10.416Z,8.62
2018-01-31T04:53:10.405Z,8.61
2018-01-31T04:54:10.432Z,8.65
2018-01-31T04:55:10.433Z,8.74
2018-01-31T04:56:10.428Z,8.70
2018-01-31T04:57:10.449Z,8.71
2018-01-31T04:58:10.417Z,8.73
2018-01-31T04:59:10.421Z,8.77
2018-01-31T05:00:10.420Z,8.76
2018-01-31T05:01:10.424Z,8.80
2018-01-31T05:02:10.412Z,8.79
2018-01-31T05:03:10.442Z,8.74
2018-01-31T05:04:10.455Z,8.76
2018-01-31T05:05:10.431Z,8.79
2018-01-31T05:06:10.473Z,8.80
2018-01-31T05:07:10.447Z,8.70
2018-01-31T05:08:10.430Z,8.74
2018-01-31T05:09:10.429Z,8.80
2018-01-31T05:10:10.437Z,8.81
2018-01-31T05:11:10.431Z,8.77
2018-01-31T05:12:10.421Z,8.96
2018-01-31T05:13:10.446Z,8.91
2018-01-31T05:14:10.443Z,8.94
2018-01-31T05:15:10.430Z,8.91
2018-01-31T05:16:10.439Z,8.99
2018-01-31T05:17:10.421Z,8.95
2018-01-31T05:18:10.432Z,9.01
2018-01-31T05:19:10.456Z,8.95
2018-01-31T05:20:11.109Z,8.96
2018-01-31T05:21:10.426Z,9.02
2018-01-31T05:22:10.430Z,8.95
2018-01-31T05:23:10.465Z,9.02
2018-01-31T05:24:10.431Z,8.99
2018-01-31T05:25:10.435Z,9.05
2018-01-31T05:26:10.448Z,9.05
2018-01-31T05:27:10.438Z,9.05
2018-01-31T05:28:10.432Z,9.08
2018-01-31T05:29:10.424Z,9.13
2018-01-31T05:30:10.445Z,9.15
2018-01-31T05:31:10.435Z,9.17
2018-01-31T05:32:10.450Z,9.14
2018-01-31T05:33:10.531Z,9.15
2018-01-31T05:34:10.433Z,9.18
2018-01-31T05:35:10.444Z,9.18
2018-01-31T05:36:10.522Z,9.21
2018-01-31T05:37:10.488Z,9.15
2018-01-31T05:38:10.479Z,9.28
2018-01-31T05:39:10.453Z,9.20
2018-01-31T05:40:10.456Z,9.32
2018-01-31T05:41:10.448Z,9.29
2018-01-31T05:42:10.476Z,9.33
2018-01-31T05:43:10.450Z,9.33
2018-01-31T05:44:10.467Z,9.32
2018-01-31T05:45:10.511Z,9.31
2018-01-31T05:46:10.442Z,9.32
2018-01-31T05:47:10.494Z,9.32
2018-01-31T05:48:10.452Z,9.31
2018-01-31T05:49:10.467Z,9.38
2018-01-31T05:50:10.453Z,9.42
2018-01-31T05:51:10.456Z,9.39
2018-01-31T05:52:10.444Z,9.43
2018-01-31T05:53:10.447Z,9.46
2018-01-31T05:54:10.454Z,9.46
2018-01-31T05:55:10.451Z,9.42
2018-01-31T05:56:10.450Z,9.47
2018-01-31T05:57:10.484Z,9.53
2018-01-31T05:58:10.468Z,9.42
2018-01-31T05:59:10.481Z,9.42
2018-01-31T06:00:10.469Z,9.47
2018-01-31T06:01:10.561Z,9.47
2018-01-31T06:02:10.462Z,9.40
2018-01-31T06:03:10.460Z,9.53
2018-01-31T06:04:10.505Z,9.51
2018-01-31T06:05:10.502Z,9.47
2018-01-31T06:06:10.532Z,9.57
2018-01-31T06:07:10.532Z,9.56
2018-01-31T06:08:10.475Z,9.54
2018-01-31T06:09:10.468Z,9.58
2018-01-31T06:10:10.474Z,9.58
2018-01-31T06:11:10.471Z,9.60
2018-01-31T06:12:10.473Z,9.64
2018-01-31T06:13:10.474Z,9.57
2018-01-31T06:14:10.477Z,9.61
2018-01-31T06:15:10.474Z,9.64
2018-01-31T06:16:10.500Z,9.65
2018-01-31T06:17:10.465Z,9.64
2018-01-31T06:18:10.480Z,9.64
2018-01-31T06:19:10.477Z,9.64
2018-01-31T06:20:11.124Z,9.65
2018-01-31T06:21:10.488Z,9.64
2018-01-31T06:22:10.486Z,9.66
2018-01-31T06:23:10.474Z,9.64
2018-01-31T06:24:10.502Z,9.64
2018-01-31T06:25:10.483Z,9.60
2018-01-31T06:26:10.484Z,9.68
2018-01-31T06:27:10.594Z,9.69
2018-01-31T06:28:10.485Z,9.72
2018-01-31T06:29:10.481Z,9.72
2018-01-31T06:30:10.492Z,9.71
2018-01-31T06:31:10.497Z,9.75
2018-01-31T06:32:10.490Z,9.66
2018-01-31T06:33:10.506Z,9.68
2018-01-31T06:34:10.497Z,9.75
2018-01-31T06:35:10.590Z,9.75
2018-01-31T06:36:10.518Z,9.74
2018-01-31T06:37:10.484Z,9.79
2018-01-31T06:38:10.497Z,9.76
2018-01-31T06:39:10.505Z,9.78
2018-01-31T06:40:10.529Z,9.78
2018-01-31T06:41:10.526Z,9.75
2018-01-31T06:42:10.496Z,9.87
2018-01-31T06:43:10.516Z,9.78
2018-01-31T06:44:10.490Z,9.91
2018-01-31T06:45:10.512Z,9.89
2018-01-31T06:46:10.518Z,9.84
2018-01-31T06:47:10.534Z,9.86
2018-01-31T06:48:10.529Z,9.91
2018-01-31T06:49:10.519Z,9.90
2018-01-31T06:50:10.541Z,9.86
2018-01-31T06:51:10.547Z,9.91
2018-01-31T06:52:10.518Z,9.83
2018-01-31T06:53:10.513Z,9.83
2018-01-31T06:54:10.520Z,9.87
2018-01-31T06:55:10.522Z,9.83
2018-01-31T06:56:10.524Z,9.97
2018-01-31T06:57:10.524Z,9.96
2018-01-31T06:58:10.513Z,9.97
2018-01-31T06:59:10.524Z,9.97
2018-01-31T07:00:10.528Z,10.01
2018-01-31T07:01:10.522Z,10.02
2018-01-31T07:02:10.528Z,10.01
2018-01-31T07:03:10.532Z,10.02
2018-01-31T07:04:10.564Z,9.94
2018-01-31T07:05:10.560Z,10.02
2018-01-31T07:06:10.545Z,9.96
2018-01-31T07:07:10.561Z,9.94
2018-01-31T07:08:10.633Z,10.01
2018-01-31T07:09:10.534Z,10.04
2018-01-31T07:10:11.222Z,9.99
2018-01-31T07:11:10.544Z,10.12
2018-01-31T07:12:10.549Z,10.14
2018-01-31T07:13:10.561Z,10.11
2018-01-31T07:14:10.548Z,10.23
2018-01-31T07:15:10.538Z,10.14
2018-01-31T07:16:10.539Z,10.09
2018-01-31T07:17:10.551Z,10.18
2018-01-31T07:18:10.578Z,10.14
2018-01-31T07:19:10.540Z,10.09
2018-01-31T07:20:10.587Z,10.05
2018-01-31T07:21:10.565Z,10.17
2018-01-31T07:22:10.553Z,10.11
2018-01-31T07:23:10.552Z,10.14
2018-01-31T07:24:10.578Z,10.14
2018-01-31T07:25:10.579Z,10.22
2018-01-31T07:26:10.564Z,10.23
2018-01-31T07:27:10.674Z,10.15
2018-01-31T07:28:10.587Z,10.20
2018-01-31T07:29:10.597Z,10.18
2018-01-31T07:30:10.561Z,10.18
2018-01-31T07:31:10.569Z,10.17
2018-01-31T07:32:10.556Z,10.08
2018-01-31T07:33:10.588Z,10.17
2018-01-31T07:34:10.604Z,10.15
2018-01-31T07:35:10.563Z,10.14
2018-01-31T07:36:10.569Z,10.15
2018-01-31T07:37:10.565Z,10.18
2018-01-31T07:38:10.573Z,10.20
2018-01-31T07:39:10.575Z,10.18
2018-01-31T07:40:10.595Z,10.18
2018-01-31T07:41:10.581Z,10.25
2018-01-31T07:42:10.591Z,10.18
2018-01-31T07:43:10.574Z,10.26
2018-01-31T07:44:11.156Z,10.22
2018-01-31T07:45:10.621Z,10.25
2018-01-31T07:46:10.599Z,10.20
2018-01-31T07:47:10.592Z,10.30
2018-01-31T07:48:10.584Z,10.18
2018-01-31T07:49:10.591Z,10.18
2018-01-31T07:50:10.605Z,10.20
2018-01-31T07:51:10.616Z,10.22
2018-01-31T07:52:10.637Z,10.23
2018-01-31T07:53:10.581Z,10.17
2018-01-31T07:54:11.305Z,10.25
2018-01-31T07:55:10.627Z,10.29
2018-01-31T07:56:10.605Z,10.20
2018-01-31T07:57:10.599Z,10.30
2018-01-31T07:58:10.627Z,10.33
2018-01-31T07:59:10.615Z,10.30
2018-01-31T08:00:10.634Z,10.36
2018-01-31T08:01:10.708Z,10.30
2018-01-31T08:02:10.929Z,10.27
2018-01-31T08:03:10.607Z,10.30
2018-01-31T08:04:10.597Z,10.29
2018-01-31T08:05:10.638Z,10.36
2018-01-31T08:06:10.640Z,10.22
2018-01-31T08:07:10.634Z,10.27
2018-01-31T08:08:10.674Z,10.34
2018-01-31T08:09:10.643Z,10.30
2018-01-31T08:10:10.610Z,10.25
2018-01-31T08:11:10.612Z,10.30
2018-01-31T08:12:10.742Z,10.25
2018-01-31T08:13:10.625Z,10.30
2018-01-31T08:14:10.613Z,10.23
2018-01-31T08:15:11.153Z,10.29
2018-01-31T08:16:10.642Z,10.29
2018-01-31T08:17:10.641Z,10.18
2018-01-31T08:18:10.657Z,10.22
2018-01-31T08:19:10.633Z,10.27
2018-01-31T08:20:10.638Z,10.22
2018-01-31T08:21:10.623Z,10.20
2018-01-31T08:22:10.627Z,10.18
2018-01-31T08:23:10.680Z,10.18
2018-01-31T08:24:10.638Z,10.32
2018-01-31T08:25:10.630Z,10.15
2018-01-31T08:26:10.670Z,10.30
2018-01-31T08:27:10.640Z,10.33
2018-01-31T08:28:10.728Z,10.32
2018-01-31T08:29:10.674Z,10.33
2018-01-31T08:30:10.637Z,10.32
2018-01-31T08:31:10.693Z,10.36
2018-01-31T08:32:10.661Z,10.30
2018-01-31T08:33:10.646Z,10.40
2018-01-31T08:34:10.644Z,10.41
2018-01-31T08:35:10.662Z,10.42
2018-01-31T08:36:10.669Z,10.38
2018-01-31T08:37:10.647Z,10.42
2018-01-31T08:38:10.706Z,10.36
2018-01-31T08:39:10.651Z,10.44
2018-01-31T08:40:10.652Z,10.42
2018-01-31T08:41:10.664Z,10.41
2018-01-31T08:42:10.664Z,10.42
2018-01-31T08:43:10.653Z,10.42
2018-01-31T08:44:10.649Z,10.42
2018-01-31T08:45:10.660Z,10.42
2018-01-31T08:46:10.683Z,10.41
2018-01-31T08:47:10.672Z,10.36
2018-01-31T08:48:10.681Z,10.41
2018-01-31T08:49:10.659Z,10.44
2018-01-31T08:50:11.078Z,10.41
2018-01-31T08:51:10.725Z,10.48
2018-01-31T08:52:10.741Z,10.51
2018-01-31T08:53:10.799Z,10.51
2018-01-31T08:54:10.665Z,10.47
2018-01-31T08:55:10.748Z,10.51
2018-01-31T08:56:10.673Z,10.52
2018-01-31T08:57:10.685Z,10.52
2018-01-31T08:58:10.694Z,10.59
2018-01-31T08:59:10.775Z,10.60
2018-01-31T09:00:10.717Z,10.59
2018-01-31T09:01:10.730Z,10.56
2018-01-31T09:02:10.770Z,10.55
2018-01-31T09:03:10.680Z,10.47
2018-01-31T09:04:11.172Z,10.61
2018-01-31T09:05:10.687Z,10.48
2018-01-31T09:06:10.721Z,10.52
2018-01-31T09:07:10.714Z,10.56
2018-01-31T09:08:10.695Z,10.52
2018-01-31T09:09:10.701Z,10.53
2018-01-31T09:10:10.724Z,10.53
2018-01-31T09:11:10.742Z,10.55
2018-01-31T09:12:11.728Z,10.60
2018-01-31T09:13:10.735Z,10.51
2018-01-31T09:14:10.701Z,10.45
2018-01-31T09:15:10.758Z,10.53
2018-01-31T09:16:10.738Z,10.55
2018-01-31T09:17:10.704Z,10.51
2018-01-31T09:18:10.737Z,10.61
2018-01-31T09:19:10.736Z,10.56
2018-01-31T09:20:11.680Z,10.52
2018-01-31T09:21:10.713Z,10.55
2018-01-31T09:22:10.709Z,10.52
2018-01-31T09:23:10.737Z,10.55
2018-01-31T09:24:10.727Z,10.55
2018-01-31T09:25:10.734Z,10.56
2018-01-31T09:26:10.736Z,10.60
2018-01-31T09:27:10.761Z,10.67
2018-01-31T09:28:10.723Z,10.67
2018-01-31T09:29:10.748Z,10.59
2018-01-31T09:30:10.729Z,10.60
2018-01-31T09:31:10.721Z,10.73
2018-01-31T09:32:10.822Z,10.64
2018-01-31T09:33:10.756Z,10.63
2018-01-31T09:34:10.740Z,10.56
2018-01-31T09:35:10.748Z,10.68
2018-01-31T09:36:11.683Z,10.61
2018-01-31T09:37:10.742Z,10.67
2018-01-31T09:38:10.777Z,10.60
2018-01-31T09:39:10.742Z,10.56
2018-01-31T09:40:10.799Z,10.59
2018-01-31T09:41:10.758Z,10.63
2018-01-31T09:42:10.752Z,10.55
2018-01-31T09:43:10.783Z,10.56
2018-01-31T09:44:10.747Z,10.56
2018-01-31T09:45:10.801Z,10.52
2018-01-31T09:46:12.180Z,10.48
2018-01-31T09:47:10.785Z,10.60
2018-01-31T09:48:10.807Z,10.60
2018-01-31T09:49:10.835Z,10.48
2018-01-31T09:50:10.830Z,10.61
2018-01-31T09:51:10.772Z,10.53
2018-01-31T09:52:10.787Z,10.47
2018-01-31T09:53:10.766Z,10.52
2018-01-31T09:54:10.766Z,10.52
2018-01-31T09:55:10.775Z,10.60
2018-01-31T09:56:10.773Z,10.51
2018-01-31T09:57:10.798Z,10.53
2018-01-31T09:58:10.793Z,10.51
2018-01-31T09:59:11.701Z,10.59
2018-01-31T10:00:10.788Z,10.60
2018-01-31T10:01:10.829Z,10.61
2018-01-31T10:02:10.823Z,10.61
2018-01-31T10:03:10.792Z,10.51
2018-01-31T10:04:10.853Z,10.53
2018-01-31T10:05:10.805Z,10.52
2018-01-31T10:06:10.823Z,10.53
2018-01-31T10:07:10.799Z,10.48
2018-01-31T10:08:10.838Z,10.53
2018-01-31T10:09:10.831Z,10.53
2018-01-31T10:10:10.858Z,10.61
2018-01-31T10:11:11.801Z,10.51
2018-01-31T10:12:10.847Z,10.52
2018-01-31T10:13:11.066Z,10.51
2018-01-31T10:14:11.016Z,10.51
2018-01-31T10:15:10.810Z,10.53
2018-01-31T10:16:10.814Z,10.59
2018-01-31T10:17:10.880Z,10.55
2018-01-31T10:18:10.887Z,10.55
2018-01-31T10:19:10.831Z,10.51
2018-01-31T10:20:10.839Z,10.47
2018-01-31T10:21:10.844Z,10.56
2018-01-31T10:22:10.840Z,10.52
2018-01-31T10:23:10.869Z,10.53
2018-01-31T10:24:10.843Z,10.53
2018-01-31T10:25:10.806Z,10.53
2018-01-31T10:26:10.815Z,10.53
2018-01-31T10:27:11.696Z,10.56
2018-01-31T10:28:10.825Z,10.56
2018-01-31T10:29:10.945Z,10.51
2018-01-31T10:30:10.889Z,10.59
2018-01-31T10:31:10.898Z,10.55
2018-01-31T10:32:10.955Z,10.67
2018-01-31T10:33:10.819Z,10.66
2018-01-31T10:34:10.827Z,10.64
2018-01-31T10:35:10.851Z,10.53
2018-01-31T10:36:10.820Z,10.61
2018-01-31T10:37:10.903Z,10.66
2018-01-31T10:38:10.833Z,10.60
2018-01-31T10:39:10.862Z,10.63
2018-01-31T10:40:10.867Z,10.68
2018-01-31T10:41:10.877Z,10.56
2018-01-31T10:42:10.857Z,10.60
2018-01-31T10:43:10.915Z,10.64
2018-01-31T10:44:10.850Z,10.56
2018-01-31T10:45:10.951Z,10.66
2018-01-31T10:46:10.836Z,10.61
2018-01-31T10:47:10.854Z,10.60
2018-01-31T10:48:10.907Z,10.60
2018-01-31T10:49:10.943Z,10.60
2018-01-31T10:50:10.920Z,10.55
2018-01-31T10:51:12.164Z,10.61
2018-01-31T10:52:10.968Z,10.61
2018-01-31T10:53:10.885Z,10.66
2018-01-31T10:57:28.597Z,10.68
2018-01-31T10:57:29.193Z,10.56
2018-01-31T10:58:10.901Z,10.55
2018-01-31T10:59:10.893Z,10.71
2018-01-31T11:00:10.891Z,10.61
2018-01-31T11:01:10.929Z,10.71
2018-01-31T11:02:10.899Z,10.55
2018-01-31T11:03:10.928Z,10.61
2018-01-31T11:04:10.893Z,10.63
2018-01-31T11:05:10.923Z,10.61
2018-01-31T11:06:10.911Z,10.76
2018-01-31T11:07:10.946Z,10.53
2018-01-31T11:08:10.974Z,10.68
2018-01-31T11:09:10.932Z,10.59
2018-01-31T11:10:10.934Z,10.60
2018-01-31T11:11:10.993Z,10.59
2018-01-31T11:12:10.891Z,10.61
2018-01-31T11:13:10.892Z,10.61
2018-01-31T11:14:10.976Z,10.59
2018-01-31T11:15:10.890Z,10.56
2018-01-31T11:16:10.932Z,10.56
2018-01-31T11:17:11.132Z,10.52
2018-01-31T11:18:11.713Z,10.56
2018-01-31T11:19:11.000Z,10.61
2018-01-31T11:20:10.909Z,10.59
2018-01-31T11:21:10.933Z,10.53
2018-01-31T11:22:10.949Z,10.53
2018-01-31T11:23:11.922Z,10.60
2018-01-31T11:24:10.959Z,10.61
2018-01-31T11:25:10.929Z,10.47
2018-01-31T11:26:10.952Z,10.47
2018-01-31T11:27:10.912Z,10.48
2018-01-31T11:28:10.982Z,10.53
2018-01-31T11:29:10.940Z,10.63
2018-01-31T11:30:10.961Z,10.55
2018-01-31T11:31:10.904Z,10.61
2018-01-31T11:32:10.938Z,10.51
2018-01-31T11:33:10.972Z,10.53
2018-01-31T11:34:10.941Z,10.53
2018-01-31T11:35:10.931Z,10.59
2018-01-31T11:36:17.865Z,10.73
2018-01-31T11:37:10.960Z,10.55
2018-01-31T11:38:10.998Z,10.64
2018-01-31T11:39:10.971Z,10.59
2018-01-31T11:40:10.972Z,10.56
2018-01-31T11:41:10.966Z,10.56
2018-01-31T11:42:10.992Z,10.55
2018-01-31T11:43:11.049Z,10.55
2018-01-31T11:44:10.965Z,10.51
2018-01-31T11:45:11.760Z,10.55
2018-01-31T11:46:10.983Z,10.55
2018-01-31T11:47:10.995Z,10.52
2018-01-31T11:48:11.034Z,10.53
2018-01-31T11:49:10.980Z,10.59
2018-01-31T11:50:10.933Z,10.51
2018-01-31T11:51:10.953Z,10.56
2018-01-31T11:52:10.957Z,10.52
2018-01-31T11:53:11.007Z,10.48
2018-01-31T11:54:10.952Z,10.51
2018-01-31T11:55:11.034Z,10.52
2018-01-31T11:56:10.995Z,10.48
2018-01-31T11:57:10.987Z,10.48
2018-01-31T11:58:11.101Z,10.53
2018-01-31T11:59:10.993Z,10.42
2018-01-31T12:00:10.984Z,10.47
2018-01-31T12:01:10.968Z,10.48
2018-01-31T12:02:10.964Z,10.44
2018-01-31T12:03:10.953Z,10.45
2018-01-31T12:04:10.957Z,10.47
2018-01-31T12:05:10.961Z,10.42
2018-01-31T12:06:10.964Z,10.42
2018-01-31T12:07:10.977Z,10.47
2018-01-31T12:08:10.974Z,10.41
2018-01-31T12:09:10.984Z,10.34
2018-01-31T12:10:10.991Z,10.34
2018-01-31T12:11:11.122Z,10.36
2018-01-31T12:12:10.997Z,10.26
2018-01-31T12:13:11.009Z,10.26
2018-01-31T12:14:11.007Z,10.29
2018-01-31T12:15:11.036Z,10.20
2018-01-31T12:16:11.746Z,10.22
2018-01-31T12:17:11.066Z,10.20
2018-01-31T12:18:11.068Z,10.23
2018-01-31T12:19:11.228Z,10.29
2018-01-31T12:20:11.035Z,10.20
2018-01-31T12:21:10.981Z,10.22
2018-01-31T12:22:10.986Z,10.34
2018-01-31T12:23:11.069Z,10.33
2018-01-31T12:24:11.051Z,10.29
2018-01-31T12:25:11.185Z,10.22
2018-01-31T12:26:10.993Z,10.15
2018-01-31T12:27:11.049Z,9.99
2018-01-31T12:28:11.035Z,9.90
2018-01-31T12:29:11.728Z,9.75
2018-01-31T12:30:11.017Z,9.56
2018-01-31T12:31:11.062Z,9.51
2018-01-31T12:32:11.021Z,9.35
2018-01-31T12:33:11.017Z,9.15
2018-01-31T12:34:11.027Z,9.04
2018-01-31T12:35:11.010Z,9.04
2018-01-31T12:36:11.093Z,8.95
2018-01-31T12:37:11.018Z,8.98
2018-01-31T12:38:11.029Z,8.95
2018-01-31T12:39:11.002Z,8.91
2018-01-31T12:40:11.083Z,8.96
2018-01-31T12:41:11.008Z,8.98
2018-01-31T12:42:11.116Z,9.04
2018-01-31T12:43:11.187Z,9.10
2018-01-31T12:44:11.029Z,9.14
2018-01-31T12:45:11.099Z,9.17
2018-01-31T12:46:11.172Z,9.15
2018-01-31T12:47:11.108Z,9.20
2018-01-31T12:48:11.058Z,9.23
2018-01-31T12:49:11.071Z,9.18
2018-01-31T12:50:11.091Z,9.13
2018-01-31T12:51:11.110Z,9.32
2018-01-31T12:52:11.227Z,9.35
2018-01-31T12:53:11.025Z,9.36
2018-01-31T12:54:11.064Z,9.46
2018-01-31T12:55:11.138Z,9.33
2018-01-31T12:56:11.062Z,9.38
2018-01-31T12:57:11.089Z,9.40
2018-01-31T12:58:11.111Z,9.36
2018-01-31T12:59:11.072Z,9.38
2018-01-31T13:00:11.059Z,9.32
2018-01-31T13:01:11.080Z,9.36
2018-01-31T13:02:11.144Z,9.39
2018-01-31T13:03:11.146Z,9.46
2018-01-31T13:04:11.159Z,9.43
2018-01-31T13:05:11.971Z,9.48
2018-01-31T13:06:11.045Z,9.48
2018-01-31T13:07:11.064Z,9.50
2018-01-31T13:08:11.067Z,9.38
2018-01-31T13:09:11.128Z,9.50
2018-01-31T13:10:11.035Z,9.40
2018-01-31T13:11:11.037Z,9.50
2018-01-31T13:12:11.037Z,9.57
2018-01-31T13:13:11.114Z,9.46
2018-01-31T13:14:11.091Z,9.43
2018-01-31T13:15:11.069Z,9.50
2018-01-31T13:16:11.079Z,9.46
2018-01-31T13:17:11.056Z,9.33
2018-01-31T13:18:11.068Z,9.40
2018-01-31T13:19:11.081Z,9.36
2018-01-31T13:20:11.045Z,9.47
2018-01-31T13:21:11.064Z,9.53
2018-01-31T13:22:11.060Z,9.43
2018-01-31T13:23:11.263Z,9.42
2018-01-31T13:24:11.056Z,9.50
2018-01-31T13:25:13.309Z,9.47
2018-01-31T13:26:11.140Z,9.51
2018-01-31T13:27:11.074Z,9.46
2018-01-31T13:28:11.118Z,9.39
2018-01-31T13:29:11.120Z,9.48
2018-01-31T13:30:11.063Z,9.50
2018-01-31T13:31:11.087Z,9.47
2018-01-31T13:32:11.086Z,9.43
2018-01-31T13:33:11.129Z,9.48
2018-01-31T13:34:11.121Z,9.47
2018-01-31T13:35:11.103Z,9.48
2018-01-31T13:36:11.061Z,9.48
2018-01-31T13:37:11.122Z,9.47
2018-01-31T13:38:11.121Z,9.43
2018-01-31T13:39:11.144Z,9.51
2018-01-31T13:40:11.174Z,9.47
2018-01-31T13:41:11.088Z,9.48
2018-01-31T13:42:11.082Z,9.46
2018-01-31T13:43:11.087Z,9.42
2018-01-31T13:44:11.128Z,9.43
2018-01-31T13:45:11.099Z,9.50
2018-01-31T13:46:11.163Z,9.48
2018-01-31T13:47:11.086Z,9.43
2018-01-31T13:48:11.090Z,9.48
2018-01-31T13:49:11.118Z,9.47
2018-01-31T13:50:11.127Z,9.47
2018-01-31T13:51:11.102Z,9.42
2018-01-31T13:52:11.167Z,9.46
2018-01-31T13:53:11.086Z,9.48
2018-01-31T13:54:11.115Z,9.47
2018-01-31T13:55:11.076Z,9.54
2018-01-31T13:56:11.146Z,9.57
2018-01-31T13:57:11.127Z,9.48
2018-01-31T13:58:11.108Z,9.56
2018-01-31T13:59:11.089Z,9.53
2018-01-31T14:00:11.153Z,9.56
2018-01-31T14:01:11.201Z,9.51
2018-01-31T14:02:11.848Z,9.53
2018-01-31T14:03:11.089Z,9.51
2018-01-31T14:04:11.101Z,9.56
2018-01-31T14:05:11.111Z,9.56
2018-01-31T14:06:11.098Z,9.50
2018-01-31T14:07:11.105Z,9.60
2018-01-31T14:08:11.220Z,9.57
2018-01-31T14:09:11.133Z,9.65
2018-01-31T14:10:11.149Z,9.51
2018-01-31T14:11:11.148Z,9.60
2018-01-31T14:12:11.134Z,9.58
2018-01-31T14:13:11.131Z,9.48
2018-01-31T14:14:11.126Z,9.50
2018-01-31T14:15:11.156Z,9.53
2018-01-31T14:16:11.149Z,9.53
2018-01-31T14:17:11.126Z,9.58
2018-01-31T14:18:11.111Z,9.54
2018-01-31T14:19:11.161Z,9.47
2018-01-31T14:20:11.113Z,9.51
2018-01-31T14:21:11.205Z,9.47
2018-01-31T14:22:11.127Z,9.51
2018-01-31T14:23:11.148Z,9.48
2018-01-31T14:24:11.171Z,9.50
2018-01-31T14:25:11.166Z,9.50
2018-01-31T14:26:11.144Z,9.66
2018-01-31T14:27:11.162Z,9.56
2018-01-31T14:28:11.234Z,9.61
2018-01-31T14:29:11.150Z,9.60
2018-01-31T14:30:11.191Z,9.53
2018-01-31T14:31:11.159Z,9.56
2018-01-31T14:32:11.118Z,9.54
2018-01-31T14:33:11.173Z,9.58
2018-01-31T14:34:11.134Z,9.65
2018-01-31T14:35:11.140Z,9.60
2018-01-31T14:36:11.234Z,9.66
2018-01-31T14:37:11.137Z,9.68
2018-01-31T14:38:11.152Z,9.72
2018-01-31T14:39:11.130Z,9.76
2018-01-31T14:40:11.177Z,9.75
2018-01-31T14:41:11.166Z,9.69
2018-01-31T14:42:11.192Z,9.75
2018-01-31T14:43:11.173Z,9.78
2018-01-31T14:44:11.178Z,9.72
2018-01-31T14:45:11.163Z,9.74
2018-01-31T14:46:11.155Z,9.76
2018-01-31T14:47:11.181Z,9.68
2018-01-31T14:48:11.162Z,9.74
2018-01-31T14:49:11.153Z,9.68
2018-01-31T14:50:11.278Z,9.72
2018-01-31T14:51:11.154Z,9.72
2018-01-31T14:52:11.234Z,9.61
2018-01-31T14:53:11.235Z,9.72
2018-01-31T14:54:11.204Z,9.58
2018-01-31T14:55:11.191Z,9.71
2018-01-31T14:56:11.890Z,9.66
2018-01-31T14:57:11.181Z,9.60
2018-01-31T14:58:11.163Z,9.60
2018-01-31T14:59:11.225Z,9.57
2018-01-31T15:00:11.252Z,9.57
2018-01-31T15:01:11.769Z,9.48